sensor_id;sensor_type;location;lat;lon;timestamp;pressure;altitude;pressure_sealevel;temperature;humidity
81243;BME280;70716;50.074;14.496;2023-10-19T00:00:40;97934.25;;;3.48;81.70
81243;BME280;70716;50.074;14.496;2023-10-19T00:03:12;97932.22;;;3.40;81.64
81243;BME280;70716;50.074;14.496;2023-10-19T00:05:38;97923.28;;;3.44;82.01
81243;BME280;70716;50.074;14.496;2023-10-19T00:08:06;97915.78;;;3.41;81.69
81243;BME280;70716;50.074;14.496;2023-10-19T00:10:45;97908.28;;;3.38;81.63
81243;BME280;70716;50.074;14.496;2023-10-19T00:13:14;97904.56;;;3.34;82.09
81243;BME280;70716;50.074;14.496;2023-10-19T00:15:43;97883.84;;;3.35;81.89
81243;BME280;70716;50.074;14.496;2023-10-19T00:18:18;97884.78;;;3.44;81.77
81243;BME280;70716;50.074;14.496;2023-10-19T00:20:46;97881.09;;;3.53;81.35
81243;BME280;70716;50.074;14.496;2023-10-19T00:23:13;97871.84;;;3.59;81.32
81243;BME280;70716;50.074;14.496;2023-10-19T00:25:39;97863.47;;;3.61;80.63
81243;BME280;70716;50.074;14.496;2023-10-19T00:28:09;97861.41;;;3.72;80.39
81243;BME280;70716;50.074;14.496;2023-10-19T00:30:37;97869.81;;;3.84;80.15
81243;BME280;70716;50.074;14.496;2023-10-19T00:33:03;97874.31;;;3.88;79.55
81243;BME280;70716;50.074;14.496;2023-10-19T00:35:33;97879.41;;;3.90;79.91
81243;BME280;70716;50.074;14.496;2023-10-19T00:38:08;97893.91;;;3.94;79.06
81243;BME280;70716;50.074;14.496;2023-10-19T00:41:07;97890.88;;;3.82;80.22
81243;BME280;70716;50.074;14.496;2023-10-19T00:43:37;97890.28;;;3.85;79.75
81243;BME280;70716;50.074;14.496;2023-10-19T00:46:11;97882.28;;;3.80;79.73
81243;BME280;70716;50.074;14.496;2023-10-19T00:49:03;97872.59;;;3.79;79.89
81243;BME280;70716;50.074;14.496;2023-10-19T00:51:52;97866.72;;;3.77;80.03
81243;BME280;70716;50.074;14.496;2023-10-19T00:54:26;97866.63;;;3.82;79.88
81243;BME280;70716;50.074;14.496;2023-10-19T00:57:03;97863.03;;;3.86;79.52
81243;BME280;70716;50.074;14.496;2023-10-19T00:59:40;97867.22;;;3.79;79.65
81243;BME280;70716;50.074;14.496;2023-10-19T01:02:18;97871.72;;;3.83;79.63
81243;BME280;70716;50.074;14.496;2023-10-19T01:04:50;97861.06;;;3.92;79.74
81243;BME280;70716;50.074;14.496;2023-10-19T01:07:22;97858.28;;;3.97;79.08
81243;BME280;70716;50.074;14.496;2023-10-19T01:09:49;97865.84;;;3.95;79.35
81243;BME280;70716;50.074;14.496;2023-10-19T01:12:21;97854.06;;;3.91;79.70
81243;BME280;70716;50.074;14.496;2023-10-19T01:15:08;97850.47;;;3.95;79.16
81243;BME280;70716;50.074;14.496;2023-10-19T01:17:48;97844.78;;;3.97;79.45
81243;BME280;70716;50.074;14.496;2023-10-19T01:20:18;97837.59;;;4.06;79.31
81243;BME280;70716;50.074;14.496;2023-10-19T01:22:52;97836.41;;;4.12;78.62
81243;BME280;70716;50.074;14.496;2023-10-19T01:25:19;97838.59;;;4.10;78.58
81243;BME280;70716;50.074;14.496;2023-10-19T01:27:53;97834.28;;;4.09;78.88
81243;BME280;70716;50.074;14.496;2023-10-19T01:30:23;97831.22;;;4.16;78.62
81243;BME280;70716;50.074;14.496;2023-10-19T01:32:48;97826.50;;;4.21;78.23
81243;BME280;70716;50.074;14.496;2023-10-19T01:35:13;97814.63;;;4.22;78.52
81243;BME280;70716;50.074;14.496;2023-10-19T01:37:39;97822.13;;;4.25;78.52
81243;BME280;70716;50.074;14.496;2023-10-19T01:40:05;97822.53;;;4.32;78.19
81243;BME280;70716;50.074;14.496;2023-10-19T01:42:32;97824.72;;;4.44;77.31
81243;BME280;70716;50.074;14.496;2023-10-19T01:44:57;97826.63;;;4.44;77.63
81243;BME280;70716;50.074;14.496;2023-10-19T01:47:22;97832.13;;;4.39;77.90
81243;BME280;70716;50.074;14.496;2023-10-19T01:49:52;97834.22;;;4.42;77.61
81243;BME280;70716;50.074;14.496;2023-10-19T01:52:18;97837.50;;;4.52;77.08
81243;BME280;70716;50.074;14.496;2023-10-19T01:54:43;97836.41;;;4.53;77.22
81243;BME280;70716;50.074;14.496;2023-10-19T01:57:08;97831.69;;;4.59;76.89
81243;BME280;70716;50.074;14.496;2023-10-19T01:59:34;97822.41;;;4.51;76.80
81243;BME280;70716;50.074;14.496;2023-10-19T02:01:59;97823.03;;;4.48;77.91
81243;BME280;70716;50.074;14.496;2023-10-19T02:04:25;97810.81;;;4.51;77.53
81243;BME280;70716;50.074;14.496;2023-10-19T02:06:51;97813.31;;;4.61;77.33
81243;BME280;70716;50.074;14.496;2023-10-19T02:09:25;97809.50;;;4.62;77.09
81243;BME280;70716;50.074;14.496;2023-10-19T02:11:55;97802.06;;;4.68;76.88
81243;BME280;70716;50.074;14.496;2023-10-19T02:14:22;97804.19;;;4.71;77.05
81243;BME280;70716;50.074;14.496;2023-10-19T02:16:51;97806.47;;;4.63;76.76
81243;BME280;70716;50.074;14.496;2023-10-19T02:19:17;97793.78;;;4.64;77.10
81243;BME280;70716;50.074;14.496;2023-10-19T02:22:03;97776.00;;;4.63;77.37
81243;BME280;70716;50.074;14.496;2023-10-19T02:24:31;97770.44;;;4.59;76.65
81243;BME280;70716;50.074;14.496;2023-10-19T02:27:00;97766.94;;;4.59;77.51
81243;BME280;70716;50.074;14.496;2023-10-19T02:29:31;97763.75;;;4.57;77.63
81243;BME280;70716;50.074;14.496;2023-10-19T02:31:57;97745.88;;;4.47;78.21
81243;BME280;70716;50.074;14.496;2023-10-19T02:34:28;97728.91;;;4.47;77.91
81243;BME280;70716;50.074;14.496;2023-10-19T02:36:54;97709.31;;;4.41;78.00
81243;BME280;70716;50.074;14.496;2023-10-19T02:39:20;97688.81;;;4.54;78.12
81243;BME280;70716;50.074;14.496;2023-10-19T02:41:47;97673.78;;;4.61;77.77
81243;BME280;70716;50.074;14.496;2023-10-19T02:44:21;97679.19;;;4.61;78.07
81243;BME280;70716;50.074;14.496;2023-10-19T02:46:55;97657.91;;;4.60;77.47
81243;BME280;70716;50.074;14.496;2023-10-19T02:49:24;97659.97;;;4.63;77.74
81243;BME280;70716;50.074;14.496;2023-10-19T02:51:52;97664.25;;;4.64;78.66
81243;BME280;70716;50.074;14.496;2023-10-19T02:54:20;97689.34;;;4.64;78.57
81243;BME280;70716;50.074;14.496;2023-10-19T02:56:51;97715.91;;;4.71;77.22
81243;BME280;70716;50.074;14.496;2023-10-19T02:59:23;97717.38;;;4.77;77.74
81243;BME280;70716;50.074;14.496;2023-10-19T03:01:59;97716.09;;;4.75;77.73
81243;BME280;70716;50.074;14.496;2023-10-19T03:04:42;97703.72;;;4.74;77.95
81243;BME280;70716;50.074;14.496;2023-10-19T03:07:09;97693.03;;;4.69;78.33
81243;BME280;70716;50.074;14.496;2023-10-19T03:09:35;97691.00;;;4.74;78.56
81243;BME280;70716;50.074;14.496;2023-10-19T03:12:21;97688.19;;;4.79;77.87
81243;BME280;70716;50.074;14.496;2023-10-19T03:14:50;97686.66;;;4.87;78.17
81243;BME280;70716;50.074;14.496;2023-10-19T03:17:16;97694.63;;;4.92;77.66
81243;BME280;70716;50.074;14.496;2023-10-19T03:19:41;97688.31;;;4.96;78.00
81243;BME280;70716;50.074;14.496;2023-10-19T03:22:07;97669.41;;;4.96;77.55
81243;BME280;70716;50.074;14.496;2023-10-19T03:24:33;97645.78;;;5.02;77.77
81243;BME280;70716;50.074;14.496;2023-10-19T03:27:09;97651.50;;;4.78;79.07
81243;BME280;70716;50.074;14.496;2023-10-19T03:29:43;97645.06;;;4.88;78.99
81243;BME280;70716;50.074;14.496;2023-10-19T03:32:13;97638.13;;;4.95;79.17
81243;BME280;70716;50.074;14.496;2023-10-19T03:34:39;97641.31;;;4.97;78.95
81243;BME280;70716;50.074;14.496;2023-10-19T03:37:09;97638.78;;;5.01;78.64
81243;BME280;70716;50.074;14.496;2023-10-19T03:39:37;97636.03;;;4.92;79.67
81243;BME280;70716;50.074;14.496;2023-10-19T03:42:06;97626.22;;;4.96;79.60
81243;BME280;70716;50.074;14.496;2023-10-19T03:44:33;97631.00;;;5.00;79.73
81243;BME280;70716;50.074;14.496;2023-10-19T03:47:21;97615.16;;;5.07;79.25
81243;BME280;70716;50.074;14.496;2023-10-19T03:49:51;97618.84;;;5.11;80.18
81243;BME280;70716;50.074;14.496;2023-10-19T03:52:17;97602.28;;;5.04;80.84
81243;BME280;70716;50.074;14.496;2023-10-19T03:54:42;97604.44;;;4.93;81.18
81243;BME280;70716;50.074;14.496;2023-10-19T03:57:10;97603.69;;;5.01;81.53
81243;BME280;70716;50.074;14.496;2023-10-19T03:59:46;97598.53;;;5.13;81.19
81243;BME280;70716;50.074;14.496;2023-10-19T04:02:14;97596.13;;;5.12;81.13
81243;BME280;70716;50.074;14.496;2023-10-19T04:05:03;97593.44;;;5.12;80.89
81243;BME280;70716;50.074;14.496;2023-10-19T04:07:29;97592.66;;;5.20;81.92
81243;BME280;70716;50.074;14.496;2023-10-19T04:09:57;97595.38;;;5.20;82.93
81243;BME280;70716;50.074;14.496;2023-10-19T04:12:24;97599.63;;;5.21;84.17
81243;BME280;70716;50.074;14.496;2023-10-19T04:14:49;97587.53;;;5.10;83.70
81243;BME280;70716;50.074;14.496;2023-10-19T04:17:15;97593.56;;;5.07;83.37
81243;BME280;70716;50.074;14.496;2023-10-19T04:19:42;97595.03;;;5.13;83.45
81243;BME280;70716;50.074;14.496;2023-10-19T04:22:09;97590.25;;;5.10;84.48
81243;BME280;70716;50.074;14.496;2023-10-19T04:24:36;97587.97;;;5.03;83.99
81243;BME280;70716;50.074;14.496;2023-10-19T04:27:01;97582.94;;;5.10;83.80
81243;BME280;70716;50.074;14.496;2023-10-19T04:29:27;97584.19;;;5.04;83.60
81243;BME280;70716;50.074;14.496;2023-10-19T04:31:53;97588.13;;;4.98;84.68
81243;BME280;70716;50.074;14.496;2023-10-19T04:34:22;97581.47;;;5.04;84.81
81243;BME280;70716;50.074;14.496;2023-10-19T04:36:48;97584.97;;;5.05;85.74
81243;BME280;70716;50.074;14.496;2023-10-19T04:39:13;97584.84;;;5.10;84.85
81243;BME280;70716;50.074;14.496;2023-10-19T04:41:46;97582.94;;;5.10;84.35
81243;BME280;70716;50.074;14.496;2023-10-19T04:44:15;97574.47;;;5.03;85.21
81243;BME280;70716;50.074;14.496;2023-10-19T04:46:43;97572.59;;;5.04;86.33
81243;BME280;70716;50.074;14.496;2023-10-19T04:49:09;97566.25;;;5.08;85.52
81243;BME280;70716;50.074;14.496;2023-10-19T04:51:34;97566.25;;;5.08;85.86
81243;BME280;70716;50.074;14.496;2023-10-19T04:54:04;97555.75;;;5.07;86.12
81243;BME280;70716;50.074;14.496;2023-10-19T04:56:32;97562.13;;;5.11;85.53
81243;BME280;70716;50.074;14.496;2023-10-19T04:58:59;97549.13;;;5.13;84.78
81243;BME280;70716;50.074;14.496;2023-10-19T05:01:24;97541.81;;;5.13;84.53
81243;BME280;70716;50.074;14.496;2023-10-19T05:03:53;97560.09;;;5.16;85.11
81243;BME280;70716;50.074;14.496;2023-10-19T05:06:18;97548.66;;;5.19;85.95
81243;BME280;70716;50.074;14.496;2023-10-19T05:08:44;97551.19;;;5.16;85.76
81243;BME280;70716;50.074;14.496;2023-10-19T05:11:09;97554.81;;;5.11;86.16
81243;BME280;70716;50.074;14.496;2023-10-19T05:13:38;97544.97;;;5.07;87.21
81243;BME280;70716;50.074;14.496;2023-10-19T05:16:04;97540.66;;;5.06;87.45
81243;BME280;70716;50.074;14.496;2023-10-19T05:18:29;97535.88;;;5.03;87.42
81243;BME280;70716;50.074;14.496;2023-10-19T05:20:55;97548.59;;;5.02;87.55
81243;BME280;70716;50.074;14.496;2023-10-19T05:23:31;97560.66;;;5.05;87.76
81243;BME280;70716;50.074;14.496;2023-10-19T05:26:02;97557.84;;;5.10;86.41
81243;BME280;70716;50.074;14.496;2023-10-19T05:28:31;97545.94;;;5.11;87.65
81243;BME280;70716;50.074;14.496;2023-10-19T05:30:56;97540.19;;;5.04;88.68
81243;BME280;70716;50.074;14.496;2023-10-19T05:33:23;97531.31;;;5.12;87.99
81243;BME280;70716;50.074;14.496;2023-10-19T05:35:50;97529.41;;;5.21;88.03
81243;BME280;70716;50.074;14.496;2023-10-19T05:38:18;97528.16;;;5.18;87.01
81243;BME280;70716;50.074;14.496;2023-10-19T05:40:50;97531.00;;;5.22;87.06
81243;BME280;70716;50.074;14.496;2023-10-19T05:43:17;97533.41;;;5.23;87.58
81243;BME280;70716;50.074;14.496;2023-10-19T05:45:42;97539.94;;;5.31;86.57
81243;BME280;70716;50.074;14.496;2023-10-19T05:48:08;97530.88;;;5.18;86.96
81243;BME280;70716;50.074;14.496;2023-10-19T05:50:34;97533.91;;;5.34;85.61
81243;BME280;70716;50.074;14.496;2023-10-19T05:53:03;97515.94;;;5.29;85.81
81243;BME280;70716;50.074;14.496;2023-10-19T05:55:30;97522.44;;;5.28;86.76
81243;BME280;70716;50.074;14.496;2023-10-19T05:57:56;97526.91;;;5.33;86.64
81243;BME280;70716;50.074;14.496;2023-10-19T06:00:22;97512.09;;;5.22;86.97
81243;BME280;70716;50.074;14.496;2023-10-19T06:02:51;97504.47;;;5.15;87.17
81243;BME280;70716;50.074;14.496;2023-10-19T06:05:17;97513.25;;;5.29;87.01
81243;BME280;70716;50.074;14.496;2023-10-19T06:07:48;97505.13;;;5.29;86.84
81243;BME280;70716;50.074;14.496;2023-10-19T06:10:18;97492.72;;;5.28;86.95
81243;BME280;70716;50.074;14.496;2023-10-19T06:12:48;97490.38;;;5.44;86.62
81243;BME280;70716;50.074;14.496;2023-10-19T06:15:20;97500.09;;;5.45;86.05
81243;BME280;70716;50.074;14.496;2023-10-19T06:17:53;97495.78;;;5.44;86.09
81243;BME280;70716;50.074;14.496;2023-10-19T06:20:19;97506.59;;;5.44;86.97
81243;BME280;70716;50.074;14.496;2023-10-19T06:22:56;97495.97;;;5.48;86.45
81243;BME280;70716;50.074;14.496;2023-10-19T06:25:25;97491.19;;;5.45;87.65
81243;BME280;70716;50.074;14.496;2023-10-19T06:27:51;97495.66;;;5.58;86.34
81243;BME280;70716;50.074;14.496;2023-10-19T06:30:18;97492.63;;;5.59;85.62
81243;BME280;70716;50.074;14.496;2023-10-19T06:32:49;97489.28;;;5.54;85.88
81243;BME280;70716;50.074;14.496;2023-10-19T06:35:18;97491.34;;;5.48;86.73
81243;BME280;70716;50.074;14.496;2023-10-19T06:37:45;97495.31;;;5.51;85.71
81243;BME280;70716;50.074;14.496;2023-10-19T06:40:15;97499.31;;;5.53;86.35
81243;BME280;70716;50.074;14.496;2023-10-19T06:42:44;97486.91;;;5.61;86.07
81243;BME280;70716;50.074;14.496;2023-10-19T06:45:14;97486.28;;;5.64;85.77
81243;BME280;70716;50.074;14.496;2023-10-19T06:47:44;97496.47;;;5.67;87.00
81243;BME280;70716;50.074;14.496;2023-10-19T06:50:14;97499.97;;;5.68;86.78
81243;BME280;70716;50.074;14.496;2023-10-19T06:52:42;97501.56;;;5.69;86.16
81243;BME280;70716;50.074;14.496;2023-10-19T06:55:09;97523.97;;;5.60;86.56
81243;BME280;70716;50.074;14.496;2023-10-19T06:57:54;97531.28;;;5.69;88.11
81243;BME280;70716;50.074;14.496;2023-10-19T07:00:23;97520.63;;;5.72;87.63
81243;BME280;70716;50.074;14.496;2023-10-19T07:02:50;97522.03;;;5.78;85.74
81243;BME280;70716;50.074;14.496;2023-10-19T07:05:17;97522.22;;;5.82;86.32
81243;BME280;70716;50.074;14.496;2023-10-19T07:07:55;97516.84;;;5.90;85.55
81243;BME280;70716;50.074;14.496;2023-10-19T07:10:22;97509.69;;;6.03;84.61
81243;BME280;70716;50.074;14.496;2023-10-19T07:12:53;97506.97;;;6.12;85.32
81243;BME280;70716;50.074;14.496;2023-10-19T07:15:19;97493.47;;;6.03;84.94
81243;BME280;70716;50.074;14.496;2023-10-19T07:17:50;97494.72;;;6.14;84.69
81243;BME280;70716;50.074;14.496;2023-10-19T07:20:26;97491.22;;;6.14;85.11
81243;BME280;70716;50.074;14.496;2023-10-19T07:22:56;97498.22;;;6.15;85.57
81243;BME280;70716;50.074;14.496;2023-10-19T07:25:22;97498.38;;;6.18;85.87
81243;BME280;70716;50.074;14.496;2023-10-19T07:27:54;97504.75;;;6.22;85.32
81243;BME280;70716;50.074;14.496;2023-10-19T07:30:24;97497.75;;;6.21;85.22
81243;BME280;70716;50.074;14.496;2023-10-19T07:32:56;97502.03;;;6.22;85.97
81243;BME280;70716;50.074;14.496;2023-10-19T07:35:34;97491.06;;;6.19;86.35
81243;BME280;70716;50.074;14.496;2023-10-19T07:38:03;97479.75;;;6.17;86.68
81243;BME280;70716;50.074;14.496;2023-10-19T07:40:30;97476.91;;;6.22;87.15
81243;BME280;70716;50.074;14.496;2023-10-19T07:42:55;97468.44;;;6.32;85.68
81243;BME280;70716;50.074;14.496;2023-10-19T07:45:24;97460.09;;;6.46;85.08
81243;BME280;70716;50.074;14.496;2023-10-19T07:47:53;97461.88;;;6.42;85.67
81243;BME280;70716;50.074;14.496;2023-10-19T07:50:21;97465.22;;;6.39;85.55
81243;BME280;70716;50.074;14.496;2023-10-19T07:52:51;97486.22;;;6.50;84.77
81243;BME280;70716;50.074;14.496;2023-10-19T07:55:18;97484.94;;;6.48;85.86
81243;BME280;70716;50.074;14.496;2023-10-19T07:57:44;97486.06;;;6.47;86.83
81243;BME280;70716;50.074;14.496;2023-10-19T08:00:11;97484.44;;;6.54;86.01
81243;BME280;70716;50.074;14.496;2023-10-19T08:02:40;97479.34;;;6.61;87.81
81243;BME280;70716;50.074;14.496;2023-10-19T08:05:19;97490.16;;;6.61;86.78
81243;BME280;70716;50.074;14.496;2023-10-19T08:07:44;97483.00;;;6.57;84.34
81243;BME280;70716;50.074;14.496;2023-10-19T08:10:16;97496.72;;;6.52;84.62
81243;BME280;70716;50.074;14.496;2023-10-19T08:12:43;97505.00;;;6.47;85.74
81243;BME280;70716;50.074;14.496;2023-10-19T08:15:11;97501.94;;;6.57;84.70
81243;BME280;70716;50.074;14.496;2023-10-19T08:17:41;97500.34;;;6.65;86.84
81243;BME280;70716;50.074;14.496;2023-10-19T08:20:07;97494.13;;;6.64;86.75
81243;BME280;70716;50.074;14.496;2023-10-19T08:22:51;97487.94;;;6.63;86.19
81243;BME280;70716;50.074;14.496;2023-10-19T08:25:25;97480.91;;;6.62;85.41
81243;BME280;70716;50.074;14.496;2023-10-19T08:27:54;97479.91;;;6.84;85.45
81243;BME280;70716;50.074;14.496;2023-10-19T08:30:22;97467.63;;;6.87;84.98
81243;BME280;70716;50.074;14.496;2023-10-19T08:32:49;97470.03;;;7.09;82.61
81243;BME280;70716;50.074;14.496;2023-10-19T08:35:21;97472.53;;;7.23;82.64
81243;BME280;70716;50.074;14.496;2023-10-19T08:37:50;97473.91;;;7.29;82.70
81243;BME280;70716;50.074;14.496;2023-10-19T08:40:16;97468.97;;;7.31;82.55
81243;BME280;70716;50.074;14.496;2023-10-19T08:42:46;97461.06;;;7.17;83.36
81243;BME280;70716;50.074;14.496;2023-10-19T08:45:12;97463.47;;;7.19;84.29
81243;BME280;70716;50.074;14.496;2023-10-19T08:47:49;97464.72;;;7.21;84.58
81243;BME280;70716;50.074;14.496;2023-10-19T08:50:19;97451.59;;;7.32;83.70
81243;BME280;70716;50.074;14.496;2023-10-19T08:52:53;97450.09;;;7.43;83.35
81243;BME280;70716;50.074;14.496;2023-10-19T08:55:21;97456.28;;;7.44;83.93
81243;BME280;70716;50.074;14.496;2023-10-19T08:57:48;97453.84;;;7.30;84.58
81243;BME280;70716;50.074;14.496;2023-10-19T09:00:18;97442.94;;;7.39;83.68
81243;BME280;70716;50.074;14.496;2023-10-19T09:02:48;97440.16;;;7.47;83.89
81243;BME280;70716;50.074;14.496;2023-10-19T09:05:15;97432.75;;;7.36;84.52
81243;BME280;70716;50.074;14.496;2023-10-19T09:07:53;97441.16;;;7.43;84.11
81243;BME280;70716;50.074;14.496;2023-10-19T09:10:26;97454.19;;;7.49;84.59
81243;BME280;70716;50.074;14.496;2023-10-19T09:13:09;97460.84;;;7.52;83.44
81243;BME280;70716;50.074;14.496;2023-10-19T09:15:39;97460.78;;;7.60;83.19
81243;BME280;70716;50.074;14.496;2023-10-19T09:20:43;97461.84;;;7.68;83.98
81243;BME280;70716;50.074;14.496;2023-10-19T09:23:24;97449.66;;;7.74;83.76
81243;BME280;70716;50.074;14.496;2023-10-19T09:25:56;97456.41;;;7.89;84.92
81243;BME280;70716;50.074;14.496;2023-10-19T09:28:36;97458.00;;;7.90;83.25
81243;BME280;70716;50.074;14.496;2023-10-19T09:31:03;97451.72;;;7.98;82.88
81243;BME280;70716;50.074;14.496;2023-10-19T09:33:31;97438.94;;;7.99;83.21
81243;BME280;70716;50.074;14.496;2023-10-19T09:36:03;97425.66;;;8.18;82.58
81243;BME280;70716;50.074;14.496;2023-10-19T09:38:43;97429.94;;;8.40;80.81
81243;BME280;70716;50.074;14.496;2023-10-19T09:41:11;97426.88;;;8.41;79.98
81243;BME280;70716;50.074;14.496;2023-10-19T09:43:41;97436.16;;;8.19;82.86
81243;BME280;70716;50.074;14.496;2023-10-19T09:46:09;97432.69;;;8.31;82.23
81243;BME280;70716;50.074;14.496;2023-10-19T09:48:45;97444.41;;;8.44;80.45
81243;BME280;70716;50.074;14.496;2023-10-19T09:51:16;97443.97;;;8.42;80.81
81243;BME280;70716;50.074;14.496;2023-10-19T09:53:51;97437.53;;;8.25;80.82
81243;BME280;70716;50.074;14.496;2023-10-19T09:56:26;97440.31;;;8.38;81.47
81243;BME280;70716;50.074;14.496;2023-10-19T09:58:55;97432.00;;;8.67;80.55
81243;BME280;70716;50.074;14.496;2023-10-19T10:01:24;97430.16;;;8.47;80.77
81243;BME280;70716;50.074;14.496;2023-10-19T10:03:52;97441.94;;;8.51;81.94
81243;BME280;70716;50.074;14.496;2023-10-19T10:09:20;97423.50;;;8.69;81.59
81243;BME280;70716;50.074;14.496;2023-10-19T10:11:52;97414.34;;;8.73;79.15
81243;BME280;70716;50.074;14.496;2023-10-19T10:14:27;97408.47;;;8.96;77.79
81243;BME280;70716;50.074;14.496;2023-10-19T10:17:03;97419.66;;;9.06;77.22
81243;BME280;70716;50.074;14.496;2023-10-19T10:19:30;97414.56;;;9.05;77.40
81243;BME280;70716;50.074;14.496;2023-10-19T10:22:09;97423.63;;;8.97;79.19
81243;BME280;70716;50.074;14.496;2023-10-19T10:24:40;97411.75;;;9.13;77.53
81243;BME280;70716;50.074;14.496;2023-10-19T10:27:06;97396.63;;;9.40;76.78
81243;BME280;70716;50.074;14.496;2023-10-19T10:29:32;97400.78;;;9.50;75.71
81243;BME280;70716;50.074;14.496;2023-10-19T10:31:58;97399.66;;;9.51;76.25
81243;BME280;70716;50.074;14.496;2023-10-19T10:39:26;97395.63;;;9.73;75.06
81243;BME280;70716;50.074;14.496;2023-10-19T10:41:58;97398.59;;;9.68;75.56
81243;BME280;70716;50.074;14.496;2023-10-19T10:44:46;97400.44;;;9.51;76.71
81243;BME280;70716;50.074;14.496;2023-10-19T10:47:23;97388.81;;;9.39;76.92
81243;BME280;70716;50.074;14.496;2023-10-19T10:50:00;97381.84;;;9.53;76.10
81243;BME280;70716;50.074;14.496;2023-10-19T10:52:31;97381.56;;;9.71;75.32
81243;BME280;70716;50.074;14.496;2023-10-19T10:55:16;97377.97;;;10.10;73.56
81243;BME280;70716;50.074;14.496;2023-10-19T10:57:43;97375.50;;;10.05;74.34
81243;BME280;70716;50.074;14.496;2023-10-19T11:00:15;97363.38;;;10.03;75.07
81243;BME280;70716;50.074;14.496;2023-10-19T11:02:43;97359.88;;;10.30;74.32
81243;BME280;70716;50.074;14.496;2023-10-19T11:05:12;97360.06;;;10.09;74.17
81243;BME280;70716;50.074;14.496;2023-10-19T11:07:39;97349.03;;;9.74;75.71
81243;BME280;70716;50.074;14.496;2023-10-19T11:10:05;97339.56;;;9.84;76.76
81243;BME280;70716;50.074;14.496;2023-10-19T11:12:31;97352.88;;;10.17;74.92
81243;BME280;70716;50.074;14.496;2023-10-19T11:15:00;97346.88;;;10.39;73.03
81243;BME280;70716;50.074;14.496;2023-10-19T11:17:29;97342.88;;;10.52;72.69
81243;BME280;70716;50.074;14.496;2023-10-19T11:19:58;97331.84;;;10.30;73.52
81243;BME280;70716;50.074;14.496;2023-10-19T11:22:27;97333.66;;;10.41;73.51
81243;BME280;70716;50.074;14.496;2023-10-19T11:24:53;97337.28;;;10.30;74.18
81243;BME280;70716;50.074;14.496;2023-10-19T11:27:26;97329.38;;;10.40;73.41
81243;BME280;70716;50.074;14.496;2023-10-19T11:29:56;97318.81;;;10.54;72.48
81243;BME280;70716;50.074;14.496;2023-10-19T11:32:23;97310.81;;;10.62;71.61
81243;BME280;70716;50.074;14.496;2023-10-19T11:34:54;97315.63;;;10.68;71.38
81243;BME280;70716;50.074;14.496;2023-10-19T11:37:20;97307.91;;;10.70;70.84
81243;BME280;70716;50.074;14.496;2023-10-19T11:39:48;97304.31;;;10.50;73.02
81243;BME280;70716;50.074;14.496;2023-10-19T11:42:17;97301.50;;;10.63;72.07
81243;BME280;70716;50.074;14.496;2023-10-19T11:44:43;97301.31;;;10.71;72.27
81243;BME280;70716;50.074;14.496;2023-10-19T11:47:09;97313.44;;;10.74;72.28
81243;BME280;70716;50.074;14.496;2023-10-19T11:49:36;97310.41;;;10.95;73.47
81243;BME280;70716;50.074;14.496;2023-10-19T11:52:06;97310.91;;;11.00;72.62
81243;BME280;70716;50.074;14.496;2023-10-19T11:54:33;97298.66;;;10.75;73.02
81243;BME280;70716;50.074;14.496;2023-10-19T11:57:01;97302.97;;;10.76;73.03
81243;BME280;70716;50.074;14.496;2023-10-19T11:59:28;97316.16;;;10.74;71.65
81243;BME280;70716;50.074;14.496;2023-10-19T12:01:54;97313.47;;;10.58;71.81
81243;BME280;70716;50.074;14.496;2023-10-19T12:04:19;97311.34;;;10.51;72.17
81243;BME280;70716;50.074;14.496;2023-10-19T12:06:45;97304.41;;;10.54;72.30
81243;BME280;70716;50.074;14.496;2023-10-19T12:09:11;97307.56;;;10.56;73.60
81243;BME280;70716;50.074;14.496;2023-10-19T12:11:41;97300.81;;;10.50;73.67
81243;BME280;70716;50.074;14.496;2023-10-19T12:14:06;97300.53;;;10.55;73.36
81243;BME280;70716;50.074;14.496;2023-10-19T12:16:37;97294.72;;;10.72;74.72
81243;BME280;70716;50.074;14.496;2023-10-19T12:19:04;97290.06;;;10.73;73.91
81243;BME280;70716;50.074;14.496;2023-10-19T12:21:29;97289.88;;;10.81;72.76
81243;BME280;70716;50.074;14.496;2023-10-19T12:23:56;97294.09;;;10.98;71.71
81243;BME280;70716;50.074;14.496;2023-10-19T12:26:24;97288.53;;;11.10;71.75
81243;BME280;70716;50.074;14.496;2023-10-19T12:28:50;97292.63;;;11.20;70.72
81243;BME280;70716;50.074;14.496;2023-10-19T12:31:17;97294.00;;;11.30;70.65
81243;BME280;70716;50.074;14.496;2023-10-19T12:33:48;97292.50;;;11.51;71.73
81243;BME280;70716;50.074;14.496;2023-10-19T12:36:14;97292.84;;;11.69;70.65
81243;BME280;70716;50.074;14.496;2023-10-19T12:38:58;97296.28;;;11.66;68.77
81243;BME280;70716;50.074;14.496;2023-10-19T12:41:24;97293.56;;;11.66;68.67
81243;BME280;70716;50.074;14.496;2023-10-19T12:43:50;97297.50;;;11.69;69.04
81243;BME280;70716;50.074;14.496;2023-10-19T12:46:25;97291.63;;;11.67;69.33
81243;BME280;70716;50.074;14.496;2023-10-19T12:48:53;97296.16;;;11.40;69.62
81243;BME280;70716;50.074;14.496;2023-10-19T12:51:24;97297.25;;;11.54;70.57
81243;BME280;70716;50.074;14.496;2023-10-19T12:53:54;97281.91;;;11.69;71.24
81243;BME280;70716;50.074;14.496;2023-10-19T12:56:20;97284.22;;;11.67;69.71
81243;BME280;70716;50.074;14.496;2023-10-19T12:58:46;97288.75;;;11.59;69.26
81243;BME280;70716;50.074;14.496;2023-10-19T13:01:13;97280.09;;;11.54;69.68
81243;BME280;70716;50.074;14.496;2023-10-19T13:03:47;97269.78;;;11.67;68.60
81243;BME280;70716;50.074;14.496;2023-10-19T13:06:13;97270.94;;;11.66;68.40
81243;BME280;70716;50.074;14.496;2023-10-19T13:08:39;97267.06;;;11.67;68.78
81243;BME280;70716;50.074;14.496;2023-10-19T13:11:09;97259.72;;;11.71;68.48
81243;BME280;70716;50.074;14.496;2023-10-19T13:13:43;97250.56;;;11.79;69.11
81243;BME280;70716;50.074;14.496;2023-10-19T13:16:08;97229.94;;;11.81;68.54
81243;BME280;70716;50.074;14.496;2023-10-19T13:18:36;97226.41;;;11.81;69.63
81243;BME280;70716;50.074;14.496;2023-10-19T13:21:02;97231.16;;;11.65;68.54